createdAt,value
2019-03-04T00:01:01.236Z,99518.35
2019-03-04T00:03:34.041Z,99517.65
2019-03-04T00:06:05.687Z,99508.22
2019-03-04T00:08:37.343Z,99509.19
2019-03-04T00:11:09.098Z,99505.08
2019-03-04T00:13:40.910Z,99509.26
2019-03-04T00:16:12.810Z,99506.98
2019-03-04T00:18:44.446Z,99508.54
2019-03-04T00:21:16.009Z,99503.59
2019-03-04T00:23:47.557Z,99500.52
2019-03-04T00:26:19.141Z,99501.55
2019-03-04T00:28:50.833Z,99494.58
2019-03-04T00:31:22.415Z,99496.30
2019-03-04T00:33:53.934Z,99490.54
2019-03-04T00:36:25.534Z,99485.77
2019-03-04T00:38:57.252Z,99479.08
2019-03-04T00:41:28.778Z,99479.64
2019-03-04T00:44:00.371Z,99472.27
2019-03-04T00:46:31.943Z,99472.97
2019-03-04T00:49:04.223Z,99465.25
2019-03-04T00:51:35.822Z,99474.12
2019-03-04T00:54:07.423Z,99465.60
2019-03-04T00:56:39.083Z,99450.47
2019-03-04T00:59:11.656Z,99453.70
2019-03-04T01:01:43.299Z,99443.67
2019-03-04T01:04:14.821Z,99436.55
2019-03-04T01:06:46.623Z,99435.41
2019-03-04T01:09:18.361Z,99443.80
2019-03-04T01:11:49.947Z,99440.98
2019-03-04T01:14:21.530Z,99440.47
2019-03-04T01:16:53.049Z,99439.75
2019-03-04T01:19:24.714Z,99438.61
2019-03-04T01:21:56.296Z,99436.44
2019-03-04T01:24:27.809Z,99430.52
2019-03-04T01:26:59.422Z,99425.98
2019-03-04T01:29:31.040Z,99419.75
2019-03-04T01:32:02.661Z,99420.09
2019-03-04T01:34:34.292Z,99422.56
2019-03-04T01:37:06.161Z,99415.33
2019-03-04T01:39:37.753Z,99418.41
2019-03-04T01:42:09.260Z,99414.67
2019-03-04T01:44:41.367Z,99410.37
2019-03-04T01:47:12.891Z,99410.17
2019-03-04T01:49:44.472Z,99407.91
2019-03-04T01:52:16.081Z,99407.83
2019-03-04T01:54:48.073Z,99403.70
2019-03-04T01:57:19.851Z,99394.66
2019-03-04T01:59:51.442Z,99396.91
2019-03-04T02:02:23.181Z,99399.44
2019-03-04T02:04:54.849Z,99395.51
2019-03-04T02:07:27.437Z,99400.79
2019-03-04T02:09:59.224Z,99397.48
2019-03-04T02:12:30.830Z,99392.90
2019-03-04T02:15:02.498Z,99389.40
2019-03-04T02:17:34.399Z,99389.78
2019-03-04T02:20:10.154Z,99387.70
2019-03-04T02:22:42.240Z,99382.67
2019-03-04T02:25:26.711Z,99375.17
2019-03-04T02:27:58.323Z,99369.62
2019-03-04T02:30:30.208Z,99366.73
2019-03-04T02:33:01.733Z,99371.13
2019-03-04T02:35:33.310Z,99355.38
2019-03-04T02:38:04.856Z,99361.92
2019-03-04T02:40:36.591Z,99352.30
2019-03-04T02:43:08.131Z,99347.98
2019-03-04T02:45:39.754Z,99344.69
2019-03-04T02:48:11.344Z,99345.18
2019-03-04T02:50:43.514Z,99331.45
2019-03-04T02:53:15.043Z,99307.11
2019-03-04T02:55:46.604Z,99307.09
2019-03-04T02:58:18.201Z,99318.65
2019-03-04T03:00:49.772Z,99323.09
2019-03-04T03:03:21.442Z,99314.41
2019-03-04T03:05:53.272Z,99308.66
2019-03-04T03:08:24.914Z,99306.05
2019-03-04T03:10:56.414Z,99298.42
2019-03-04T03:13:27.989Z,99295.34
2019-03-04T03:15:59.520Z,99311.91
2019-03-04T03:18:31.111Z,99321.12
2019-03-04T03:21:02.848Z,99319.01
2019-03-04T03:23:34.437Z,99318.20
2019-03-04T03:26:05.970Z,99324.11
2019-03-04T03:28:37.487Z,99313.61
2019-03-04T03:31:09.018Z,99305.75
2019-03-04T03:33:40.682Z,99298.64
2019-03-04T03:36:12.228Z,99305.81
2019-03-04T03:38:43.757Z,99301.90
2019-03-04T03:41:15.489Z,99305.17
2019-03-04T03:43:47.157Z,99303.61
2019-03-04T03:46:18.689Z,99306.72
2019-03-04T03:48:50.289Z,99308.08
2019-03-04T03:51:21.807Z,99308.45
2019-03-04T03:53:53.398Z,99306.02
2019-03-04T03:56:25.050Z,99299.66
2019-03-04T03:58:56.720Z,99291.67
2019-03-04T04:01:28.328Z,99294.08
2019-03-04T04:03:59.863Z,99285.33
2019-03-04T04:06:31.466Z,99277.44
2019-03-04T04:09:03.080Z,99280.34
2019-03-04T04:11:36.087Z,99289.75
2019-03-04T04:14:08.671Z,99295.04
2019-03-04T04:16:40.197Z,99305.07
2019-03-04T04:19:11.731Z,99299.96
2019-03-04T04:21:43.289Z,99299.94
2019-03-04T04:24:14.887Z,99307.44
2019-03-04T04:26:46.459Z,99290.62
2019-03-04T04:29:17.986Z,99292.47
2019-03-04T04:31:49.568Z,99292.05
2019-03-04T04:34:21.146Z,99284.72
2019-03-04T04:36:52.663Z,99286.28
2019-03-04T04:39:24.252Z,99286.64
2019-03-04T04:41:55.810Z,99277.41
2019-03-04T04:44:27.499Z,99271.45
2019-03-04T04:46:59.076Z,99265.70
2019-03-04T04:49:30.660Z,99251.95
2019-03-04T04:52:02.192Z,99249.86
2019-03-04T04:54:33.716Z,99248.29
2019-03-04T04:57:05.293Z,99244.73
2019-03-04T04:59:37.294Z,99244.15
2019-03-04T05:02:08.940Z,99242.04
2019-03-04T05:04:40.510Z,99241.85
2019-03-04T05:07:12.180Z,99234.73
2019-03-04T05:09:43.872Z,99238.47
2019-03-04T05:12:15.935Z,99234.73
2019-03-04T05:14:48.308Z,99229.56
2019-03-04T05:17:20.108Z,99228.39
2019-03-04T05:19:51.915Z,99222.43
2019-03-04T05:22:23.555Z,99208.41
2019-03-04T05:24:55.310Z,99203.67
2019-03-04T05:27:26.892Z,99182.53
2019-03-04T05:29:58.585Z,99182.34
2019-03-04T05:32:30.414Z,99180.80
2019-03-04T05:35:02.044Z,99178.12
2019-03-04T05:37:33.653Z,99168.88
2019-03-04T05:40:09.974Z,99166.09
2019-03-04T05:42:41.876Z,99164.75
2019-03-04T05:45:16.835Z,99175.80
2019-03-04T05:47:48.413Z,99178.39
2019-03-04T05:50:24.323Z,99178.11
2019-03-04T05:52:55.896Z,99192.64
2019-03-04T05:55:27.421Z,99186.39
2019-03-04T05:57:58.956Z,99173.77
2019-03-04T06:00:41.350Z,99167.24
2019-03-04T06:03:17.862Z,99169.17
2019-03-04T06:05:49.860Z,99157.26
2019-03-04T06:08:21.837Z,99162.64
2019-03-04T06:10:53.474Z,99157.53
2019-03-04T06:13:26.243Z,99144.83
2019-03-04T06:15:58.089Z,99151.86
2019-03-04T06:18:29.879Z,99142.03
2019-03-04T06:21:01.599Z,99136.27
2019-03-04T06:23:33.329Z,99141.23
2019-03-04T06:26:05.186Z,99128.36
2019-03-04T06:28:36.970Z,99135.32
2019-03-04T06:31:08.946Z,99118.46
2019-03-04T06:33:40.771Z,99113.54
2019-03-04T06:36:12.468Z,99109.03
2019-03-04T06:38:44.439Z,99110.42
2019-03-04T06:41:16.252Z,99098.66
2019-03-04T06:43:49.021Z,99095.16
2019-03-04T06:46:20.795Z,99085.44
2019-03-04T06:48:52.716Z,99090.38
2019-03-04T06:51:34.921Z,99093.40
2019-03-04T06:54:15.163Z,99083.79
2019-03-04T06:57:00.949Z,99089.86
2019-03-04T06:59:49.626Z,99088.25
2019-03-04T07:02:31.951Z,99087.27
2019-03-04T07:05:23.762Z,99080.62
2019-03-04T07:07:55.689Z,99076.78
2019-03-04T07:10:28.066Z,99062.70
2019-03-04T07:12:59.706Z,99052.31
2019-03-04T07:15:31.260Z,99043.45
2019-03-04T07:18:02.907Z,99042.20
2019-03-04T07:20:34.426Z,99044.80
2019-03-04T07:23:06.074Z,99047.71
2019-03-04T07:25:38.200Z,99046.39
2019-03-04T07:28:09.782Z,99037.23
2019-03-04T07:30:41.375Z,99033.55
2019-03-04T07:33:12.922Z,99017.73
2019-03-04T07:35:44.496Z,99019.92
2019-03-04T07:38:21.754Z,99016.52
2019-03-04T07:40:53.807Z,99006.80
2019-03-04T07:43:25.477Z,99005.76
2019-03-04T07:45:56.997Z,99012.27
2019-03-04T07:48:28.513Z,99007.50
2019-03-04T07:51:12.817Z,99018.69
2019-03-04T07:53:46.598Z,99007.78
2019-03-04T07:56:17.892Z,98987.47
2019-03-04T07:58:49.418Z,98993.14
2019-03-04T08:01:20.966Z,98991.57
2019-03-04T08:03:52.550Z,98984.17
2019-03-04T08:06:24.986Z,98993.66
2019-03-04T08:09:16.409Z,98982.94
2019-03-04T08:12:32.534Z,98971.36
2019-03-04T08:15:05.938Z,98976.66
2019-03-04T08:17:37.550Z,98979.59
2019-03-04T08:20:09.511Z,98972.72
2019-03-04T08:22:41.120Z,98969.02
2019-03-04T08:25:12.872Z,98973.33
2019-03-04T08:27:44.470Z,98968.38
2019-03-04T08:30:19.032Z,98968.14
2019-03-04T08:32:50.620Z,98963.86
2019-03-04T08:35:22.457Z,98950.03
2019-03-04T08:37:54.052Z,98943.02
2019-03-04T08:40:25.706Z,98947.08
2019-03-04T08:42:57.368Z,98940.20
2019-03-04T08:45:28.945Z,98938.51
2019-03-04T08:48:01.014Z,98936.28
2019-03-04T08:50:32.696Z,98928.49
2019-03-04T08:53:04.296Z,98929.62
2019-03-04T08:55:35.894Z,98916.09
2019-03-04T08:58:07.498Z,98916.31
2019-03-04T09:00:40.093Z,98895.91
2019-03-04T09:03:11.662Z,98888.15
2019-03-04T09:05:43.257Z,98880.54
2019-03-04T09:08:14.856Z,98874.87
2019-03-04T09:10:47.454Z,98883.09
2019-03-04T09:13:19.048Z,98887.03
2019-03-04T09:15:51.636Z,98881.01
2019-03-04T09:18:25.783Z,98882.61
2019-03-04T09:20:59.823Z,98872.26
2019-03-04T09:23:31.558Z,98870.78
2019-03-04T09:26:11.930Z,98863.73
2019-03-04T09:28:43.602Z,98858.31
2019-03-04T09:31:15.143Z,98862.12
2019-03-04T09:33:46.789Z,98850.92
2019-03-04T09:36:18.814Z,98841.67
2019-03-04T09:38:50.473Z,98841.80
2019-03-04T09:41:22.060Z,98831.11
2019-03-04T09:43:53.666Z,98834.59
2019-03-04T09:46:25.262Z,98833.34
2019-03-04T09:48:56.910Z,98815.87
2019-03-04T09:51:28.758Z,98820.03
2019-03-04T09:54:00.317Z,98819.23
2019-03-04T09:56:31.827Z,98826.34
2019-03-04T09:59:03.399Z,98815.67
2019-03-04T10:01:42.566Z,98807.16
2019-03-04T10:04:52.813Z,98792.81
2019-03-04T10:07:47.456Z,98775.10
2019-03-04T10:10:47.969Z,98775.52
2019-03-04T10:13:46.167Z,98767.98
2019-03-04T10:16:25.746Z,98733.84
2019-03-04T10:19:05.643Z,98739.70
2019-03-04T10:22:19.105Z,98737.91
2019-03-04T10:24:55.584Z,98735.20
2019-03-04T10:27:40.441Z,98744.53
2019-03-04T10:30:34.393Z,98743.13
2019-03-04T10:33:48.392Z,98744.59
2019-03-04T10:36:50.409Z,98746.55
2019-03-04T10:39:43.230Z,98745.92
2019-03-04T10:42:39.202Z,98741.94
2019-03-04T10:45:30.803Z,98745.48
2019-03-04T10:48:02.321Z,98727.70
2019-03-04T10:50:33.833Z,98714.07
2019-03-04T10:53:05.425Z,98718.28
2019-03-04T10:55:42.086Z,98715.26
2019-03-04T10:58:10.313Z,98701.83
2019-03-04T11:00:42.917Z,98699.90
2019-03-04T11:03:14.680Z,98690.33
2019-03-04T11:05:46.402Z,98684.91
2019-03-04T11:08:18.081Z,98694.47
2019-03-04T11:10:49.690Z,98699.78
2019-03-04T11:13:21.297Z,98694.23
2019-03-04T11:15:52.964Z,98705.00
2019-03-04T11:18:24.498Z,98701.32
2019-03-04T11:20:56.086Z,98703.25
2019-03-04T11:23:29.704Z,98689.26
2019-03-04T11:26:01.209Z,98684.51
2019-03-04T11:28:32.951Z,98692.48
2019-03-04T11:31:04.547Z,98691.98
2019-03-04T11:33:36.120Z,98698.61
2019-03-04T11:36:07.642Z,98684.33
2019-03-04T11:38:52.630Z,98677.20
2019-03-04T11:41:24.743Z,98673.95
2019-03-04T11:43:56.396Z,98662.52
2019-03-04T11:46:27.970Z,98662.98
2019-03-04T11:48:59.608Z,98654.49
2019-03-04T11:51:31.126Z,98645.59
2019-03-04T11:54:02.796Z,98635.42
2019-03-04T11:56:34.446Z,98626.64
2019-03-04T11:59:06.031Z,98627.41
2019-03-04T12:01:39.638Z,98614.06
2019-03-04T12:04:11.303Z,98609.21
2019-03-04T12:06:43.313Z,98609.50
2019-03-04T12:09:15.818Z,98592.44
2019-03-04T12:11:47.391Z,98591.98
2019-03-04T12:14:19.534Z,98578.08
2019-03-04T12:16:51.094Z,98580.22
2019-03-04T12:19:22.730Z,98571.77
2019-03-04T12:21:54.320Z,98563.48
2019-03-04T12:24:25.892Z,98548.41
2019-03-04T12:26:57.565Z,98524.95
2019-03-04T12:29:29.369Z,98518.28
2019-03-04T12:32:02.570Z,98502.33
2019-03-04T12:34:34.345Z,98481.64
2019-03-04T12:37:05.862Z,98490.41
2019-03-04T12:39:37.485Z,98505.14
2019-03-04T12:42:09.175Z,98491.55
2019-03-04T12:44:40.828Z,98479.77
2019-03-04T12:47:12.645Z,98483.72
2019-03-04T12:49:44.402Z,98475.40
2019-03-04T12:52:17.276Z,98462.06
2019-03-04T12:54:49.328Z,98466.78
2019-03-04T12:57:20.906Z,98455.56
2019-03-04T12:59:54.195Z,98462.90
2019-03-04T13:02:25.835Z,98453.60
2019-03-04T13:04:57.624Z,98444.75
2019-03-04T13:07:29.292Z,98445.77
2019-03-04T13:10:00.962Z,98445.06
2019-03-04T13:12:32.600Z,98441.53
2019-03-04T13:15:10.057Z,98429.70
2019-03-04T13:17:41.714Z,98419.98
2019-03-04T13:20:16.783Z,98414.77
2019-03-04T13:22:48.311Z,98423.71
2019-03-04T13:25:19.873Z,98411.66
2019-03-04T13:27:51.478Z,98403.48
2019-03-04T13:30:41.059Z,98396.95
2019-03-04T13:33:12.573Z,98389.12
2019-03-04T13:35:45.039Z,98398.89
2019-03-04T13:38:16.565Z,98391.36
2019-03-04T13:40:49.078Z,98401.16
2019-03-04T13:43:20.648Z,98389.11
2019-03-04T13:45:53.909Z,98397.88
2019-03-04T13:48:25.638Z,98385.22
2019-03-04T13:50:57.240Z,98388.94
2019-03-04T13:53:28.855Z,98394.89
2019-03-04T13:56:00.521Z,98393.98
2019-03-04T13:58:33.143Z,98383.70
2019-03-04T14:01:04.667Z,98396.44
2019-03-04T14:03:36.199Z,98386.41
2019-03-04T14:06:08.066Z,98385.05
2019-03-04T14:08:39.636Z,98382.93
2019-03-04T14:11:12.233Z,98371.52
2019-03-04T14:13:43.882Z,98362.19
2019-03-04T14:16:15.742Z,98377.65
2019-03-04T14:18:47.344Z,98366.65
2019-03-04T14:21:18.920Z,98358.81
2019-03-04T14:23:50.478Z,98368.33
2019-03-04T14:26:22.061Z,98372.16
2019-03-04T14:28:53.980Z,98375.57
2019-03-04T14:31:25.537Z,98380.59
2019-03-04T14:33:57.052Z,98381.91
2019-03-04T14:36:28.688Z,98377.31
2019-03-04T14:39:00.322Z,98398.77
2019-03-04T14:41:32.244Z,98374.11
2019-03-04T14:44:03.837Z,98360.55
2019-03-04T14:46:35.344Z,98354.39
2019-03-04T14:49:06.878Z,98362.47
2019-03-04T14:51:38.473Z,98370.76
2019-03-04T14:54:10.024Z,98381.20
2019-03-04T14:56:41.569Z,98379.67
2019-03-04T14:59:14.969Z,98376.78
2019-03-04T15:01:48.338Z,98357.52
2019-03-04T15:04:19.871Z,98374.78
2019-03-04T15:06:51.443Z,98374.68
2019-03-04T15:09:23.083Z,98389.27
2019-03-04T15:11:54.636Z,98393.11
2019-03-04T15:14:26.139Z,98390.79
2019-03-04T15:17:03.244Z,98401.30
2019-03-04T15:19:30.928Z,98403.80
2019-03-04T15:22:03.519Z,98415.13
2019-03-04T15:24:35.083Z,98419.42
2019-03-04T15:27:06.681Z,98416.63
2019-03-04T15:29:38.206Z,98416.71
2019-03-04T15:32:10.180Z,98414.73
2019-03-04T15:34:41.706Z,98427.67
2019-03-04T15:37:13.263Z,98418.20
2019-03-04T15:39:44.831Z,98418.34
2019-03-04T15:42:16.483Z,98425.06
2019-03-04T15:44:48.103Z,98420.53
2019-03-04T15:47:19.779Z,98415.46
2019-03-04T15:49:51.533Z,98413.20
2019-03-04T15:52:23.172Z,98420.17
2019-03-04T15:54:54.703Z,98420.88
2019-03-04T15:57:26.332Z,98418.10
2019-03-04T15:59:57.872Z,98425.95
2019-03-04T16:02:29.554Z,98430.50
2019-03-04T16:05:01.244Z,98431.50
2019-03-04T16:07:32.997Z,98431.85
2019-03-04T16:10:08.375Z,98427.72
2019-03-04T16:12:39.967Z,98432.56
2019-03-04T16:15:23.427Z,98436.17
2019-03-04T16:17:55.037Z,98453.06
2019-03-04T16:20:26.547Z,98433.69
2019-03-04T16:22:58.210Z,98429.09
2019-03-04T16:25:29.822Z,98443.53
2019-03-04T16:28:06.393Z,98450.26
2019-03-04T16:30:38.569Z,98448.65
2019-03-04T16:33:10.796Z,98457.48
2019-03-04T16:35:42.316Z,98456.56
2019-03-04T16:38:13.849Z,98463.42
2019-03-04T16:40:45.386Z,98465.20
2019-03-04T16:43:16.920Z,98453.93
2019-03-04T16:45:49.266Z,98446.33
2019-03-04T16:48:21.011Z,98448.95
2019-03-04T16:50:54.262Z,98450.08
2019-03-04T16:53:34.429Z,98443.75
2019-03-04T16:56:07.453Z,98442.99
2019-03-04T16:58:39.426Z,98442.27
2019-03-04T17:01:13.331Z,98437.38
2019-03-04T17:03:45.116Z,98438.97
2019-03-04T17:06:17.425Z,98435.50
2019-03-04T17:08:50.862Z,98432.72
2019-03-04T17:11:22.545Z,98431.30
2019-03-04T17:13:54.157Z,98424.25
2019-03-04T17:16:25.814Z,98419.52
2019-03-04T17:18:57.470Z,98424.60
2019-03-04T17:21:29.154Z,98427.65
2019-03-04T17:24:00.769Z,98425.19
2019-03-04T17:26:33.364Z,98433.50
2019-03-04T17:29:05.235Z,98432.00
2019-03-04T17:31:36.830Z,98419.47
2019-03-04T17:34:08.435Z,98415.09
2019-03-04T17:36:40.119Z,98427.26
2019-03-04T17:39:11.780Z,98418.08
2019-03-04T17:41:45.088Z,98429.34
2019-03-04T17:44:21.706Z,98421.98
2019-03-04T17:46:53.385Z,98408.53
2019-03-04T17:49:25.183Z,98409.41
2019-03-04T17:51:56.815Z,98416.39
2019-03-04T17:54:29.781Z,98418.30
2019-03-04T17:57:01.370Z,98409.11
2019-03-04T17:59:35.479Z,98400.80
2019-03-04T18:02:07.468Z,98418.76
2019-03-04T18:04:39.067Z,98416.30
2019-03-04T18:07:10.598Z,98407.58
2019-03-04T18:09:42.148Z,98422.09
2019-03-04T18:12:13.755Z,98425.03
2019-03-04T18:14:45.600Z,98420.11
2019-03-04T18:17:17.297Z,98403.71
2019-03-04T18:19:49.320Z,98421.64
2019-03-04T18:22:20.774Z,98409.77
2019-03-04T18:24:52.369Z,98414.76
2019-03-04T18:27:24.201Z,98418.61
2019-03-04T18:30:15.348Z,98425.81
2019-03-04T18:33:20.456Z,98432.21
2019-03-04T18:36:17.792Z,98426.59
2019-03-04T18:39:12.242Z,98430.95
2019-03-04T18:42:16.207Z,98425.17
2019-03-04T18:45:13.539Z,98417.66
2019-03-04T18:48:18.968Z,98429.70
2019-03-04T18:50:50.635Z,98419.28
2019-03-04T18:53:22.281Z,98417.08
2019-03-04T18:55:54.109Z,98410.20
2019-03-04T18:58:25.794Z,98423.22
2019-03-04T19:00:57.783Z,98420.52
2019-03-04T19:03:29.690Z,98430.73
2019-03-04T19:06:01.516Z,98432.30
2019-03-04T19:08:33.676Z,98467.45
2019-03-04T19:11:05.260Z,98495.97
2019-03-04T19:13:37.259Z,98488.62
2019-03-04T19:16:09.013Z,98489.12
2019-03-04T19:18:41.378Z,98504.70
2019-03-04T19:21:13.185Z,98510.95
2019-03-04T19:23:44.941Z,98540.33
2019-03-04T19:26:17.017Z,98542.03
2019-03-04T19:28:48.688Z,98563.10
2019-03-04T19:31:20.257Z,98565.36
2019-03-04T19:33:52.025Z,98576.56
2019-03-04T19:36:23.795Z,98569.11
2019-03-04T19:38:57.136Z,98592.21
2019-03-04T19:41:30.572Z,98592.47
2019-03-04T19:44:02.516Z,98597.39
2019-03-04T19:46:35.642Z,98611.45
2019-03-04T19:49:08.094Z,98615.20
2019-03-04T19:51:39.953Z,98625.12
2019-03-04T19:54:11.657Z,98622.38
2019-03-04T19:56:43.265Z,98623.94
2019-03-04T19:59:14.893Z,98627.44
2019-03-04T20:01:46.795Z,98648.16
2019-03-04T20:04:18.539Z,98646.69
2019-03-04T20:06:50.208Z,98645.39
2019-03-04T20:09:21.907Z,98654.36
2019-03-04T20:11:53.689Z,98643.98
2019-03-04T20:14:25.451Z,98646.23
2019-03-04T20:16:57.048Z,98664.29
2019-03-04T20:19:28.625Z,98661.14
2019-03-04T20:22:00.273Z,98667.81
2019-03-04T20:24:32.021Z,98668.25
2019-03-04T20:27:03.739Z,98671.72
2019-03-04T20:29:35.254Z,98660.45
2019-03-04T20:32:06.978Z,98665.74
2019-03-04T20:34:40.008Z,98684.08
2019-03-04T20:37:12.302Z,98677.45
2019-03-04T20:39:44.690Z,98687.61
2019-03-04T20:42:16.364Z,98680.69
2019-03-04T20:44:48.286Z,98679.23
2019-03-04T20:47:21.946Z,98689.30
2019-03-04T20:49:54.973Z,98688.95
2019-03-04T20:52:26.451Z,98698.36
2019-03-04T20:54:58.112Z,98700.19
2019-03-04T20:57:29.720Z,98698.97
2019-03-04T21:00:01.482Z,98699.52
2019-03-04T21:02:34.725Z,98699.34
2019-03-04T21:05:09.952Z,98703.28
2019-03-04T21:07:41.664Z,98709.49
2019-03-04T21:10:14.072Z,98707.56
2019-03-04T21:12:47.575Z,98708.55
2019-03-04T21:15:20.014Z,98712.95
2019-03-04T21:17:52.367Z,98721.30
2019-03-04T21:20:25.781Z,98717.84
2019-03-04T21:22:57.368Z,98718.70
2019-03-04T21:25:43.918Z,98722.55
2019-03-04T21:28:38.222Z,98728.66
2019-03-04T21:31:31.983Z,98718.90
2019-03-04T21:34:35.520Z,98731.44
2019-03-04T21:37:17.759Z,98740.27
2019-03-04T21:39:57.234Z,98737.38
2019-03-04T21:42:39.629Z,98753.40
2019-03-04T21:45:47.515Z,98757.91
2019-03-04T21:48:54.027Z,98754.36
2019-03-04T21:51:39.181Z,98764.13
2019-03-04T21:54:12.341Z,98772.94
2019-03-04T21:57:03.646Z,98776.49
2019-03-04T21:59:35.229Z,98777.56
2019-03-04T22:02:32.804Z,98777.55
2019-03-04T22:05:12.361Z,98777.20
2019-03-04T22:07:45.133Z,98786.77
2019-03-04T22:10:17.231Z,98787.72
2019-03-04T22:12:48.917Z,98791.36
2019-03-04T22:15:20.492Z,98804.32
2019-03-04T22:17:52.299Z,98799.52
2019-03-04T22:20:24.010Z,98798.66
2019-03-04T22:22:57.573Z,98806.89
2019-03-04T22:25:29.301Z,98806.24
2019-03-04T22:28:00.818Z,98816.97
2019-03-04T22:30:34.112Z,98817.06
2019-03-04T22:33:05.813Z,98824.27
2019-03-04T22:35:37.553Z,98823.02
2019-03-04T22:38:09.612Z,98822.83
2019-03-04T22:40:41.661Z,98829.91
2019-03-04T22:43:13.230Z,98837.78
2019-03-04T22:45:44.818Z,98840.83
2019-03-04T22:48:16.406Z,98839.48
2019-03-04T22:50:48.000Z,98840.47
2019-03-04T22:53:19.605Z,98842.19
2019-03-04T22:55:51.168Z,98847.58
2019-03-04T22:58:28.527Z,98843.22
2019-03-04T23:01:01.125Z,98852.91
2019-03-04T23:03:37.794Z,98862.50
2019-03-04T23:06:14.253Z,98853.49
2019-03-04T23:08:45.839Z,98857.52
2019-03-04T23:11:18.202Z,98851.35
2019-03-04T23:14:07.879Z,98862.61
2019-03-04T23:16:39.441Z,98864.11
2019-03-04T23:19:11.119Z,98865.81
2019-03-04T23:22:55.723Z,98869.38
2019-03-04T23:25:43.015Z,98867.54
2019-03-04T23:28:14.673Z,98865.08
2019-03-04T23:30:46.329Z,98861.48
2019-03-04T23:33:18.014Z,98865.86
2019-03-04T23:35:49.605Z,98868.89
2019-03-04T23:38:21.558Z,98868.31
2019-03-04T23:41:11.424Z,98873.67
2019-03-04T23:43:43.084Z,98872.45
2019-03-04T23:46:14.756Z,98874.86
2019-03-04T23:48:46.302Z,98867.55
2019-03-04T23:51:17.953Z,98873.44
2019-03-04T23:53:49.990Z,98872.14
2019-03-04T23:56:21.628Z,98874.67
2019-03-04T23:58:53.173Z,98873.41
